Aviation Digital Data Service (ADDS)

Output produced by METARs form (1202 UTC 16 July 2019)
found at http://www.aviationweather.gov/metar/data/
 
TAF LFPG 161100Z 1612/1718 36005KT CAVOK TX28/1715Z TN13/1704Z